Time;durP1;ratioP1;P1;durP2;ratioP2;P2;SDS_P1;SDS_P2;PMS_P1;PMS_P2;Temp;Humidity;BMP_temperature;BMP_pressure;BME280_temperature;BME280_humidity;BME280_pressure;Samples;Min_cycle;Max_cycle;Signal;HPM_P1;HPM_P2
2022/09/07 00:00:46;;;;;;;6.05;5.70;;;;;;;18.44;100.00;101077.97;6051191;23;20021;-68
2022/09/07 00:03:13;;;;;;;5.20;5.00;;;;;;;18.45;100.00;101075.19;6021752;23;20768;-71
2022/09/07 00:05:44;;;;;;;6.97;6.68;;;;;;;18.22;100.00;101037.19;6048777;23;20033;-68
2022/09/07 00:08:15;;;;;;;5.30;5.10;;;;;;;18.49;100.00;101091.75;6001988;23;20095;-72
2022/09/07 00:10:56;;;;;;;5.70;5.30;;;;;;;18.49;100.00;101089.94;6052356;23;20400;-68
2022/09/07 00:13:25;;;;;;;5.38;5.15;;;;;;;18.41;100.00;101080.88;6013586;23;20041;-72
2022/09/07 00:15:52;;;;;;;5.10;4.90;;;;;;;18.49;100.00;101091.75;6049190;23;20027;-72
2022/09/07 00:18:19;;;;;;;5.35;5.05;;;;;;;18.50;100.00;101074.81;6021222;23;20097;-69
2022/09/07 00:20:46;;;;;;;5.50;5.20;;;;;;;18.57;100.00;101065.41;6051173;23;20045;-70
2022/09/07 00:23:12;;;;;;;6.05;5.53;;;;;;;18.26;100.00;101041.28;6020442;23;20111;-71
2022/09/07 00:25:39;;;;;;;6.45;6.15;;;;;;;18.32;100.00;101042.59;6052551;23;20015;-70
2022/09/07 00:28:07;;;;;;;5.75;5.25;;;;;;;18.04;100.00;101044.78;6057485;23;20722;-72
2022/09/07 00:30:40;;;;;;;6.85;6.55;;;;;;;16.98;100.00;100885.75;6029182;23;20534;-72
2022/09/07 00:33:07;;;;;;;5.00;4.80;;;;;;;17.54;100.00;100972.53;6054495;23;20024;-71
2022/09/07 00:35:40;;;;;;;7.20;6.57;;;;;;;17.98;100.00;101050.56;6050239;23;20010;-70
2022/09/07 00:38:07;;;;;;;5.80;5.50;;;;;;;17.95;100.00;101050.81;6065203;23;20510;-73
2022/09/07 00:40:34;;;;;;;7.03;6.40;;;;;;;17.65;100.00;101049.50;6048010;23;20014;-68
2022/09/07 00:43:01;;;;;;;6.55;5.32;;;;;;;17.84;100.00;101033.06;6063289;23;20037;-75
2022/09/07 00:45:28;;;;;;;6.47;6.18;;;;;;;17.73;100.00;101009.09;6055857;23;20101;-71
2022/09/07 00:48:13;;;;;;;5.50;5.20;;;;;;;17.87;100.00;101008.06;6053318;23;20045;-72
2022/09/07 00:50:45;;;;;;;5.68;5.28;;;;;;;17.96;100.00;101006.50;6022935;23;20480;-71
2022/09/07 00:53:32;;;;;;;5.20;5.00;;;;;;;16.83;100.00;100824.13;6068198;23;20079;-70
2022/09/07 00:56:00;;;;;;;5.75;5.43;;;;;;;16.50;100.00;100740.09;6055674;23;20559;-72
2022/09/07 00:58:26;;;;;;;6.95;6.45;;;;;;;16.50;100.00;100742.72;6047827;23;20023;-72
2022/09/07 01:00:54;;;;;;;5.57;5.28;;;;;;;18.03;100.00;101010.38;6045561;23;20515;-71
2022/09/07 01:03:32;;;;;;;5.68;5.38;;;;;;;18.08;100.00;101000.22;6040937;23;20033;-72
2022/09/07 01:06:14;;;;;;;6.35;5.70;;;;;;;18.11;100.00;100978.75;6037628;23;20014;-72
2022/09/07 01:08:42;;;;;;;7.03;6.60;;;;;;;15.81;100.00;100589.13;6050072;23;20015;-71
2022/09/07 01:11:10;;;;;;;5.82;5.53;;;;;;;18.11;100.00;100990.19;6056852;23;20029;-72
2022/09/07 01:13:39;;;;;;;7.13;6.72;;;;;;;18.12;100.00;100952.06;6032688;23;20038;-72
2022/09/07 01:16:46;;;;;;;6.00;5.60;;;;;;;18.05;100.00;100934.91;6055237;23;20460;-72
2022/09/07 01:19:40;;;;;;;5.55;5.20;;;;;;;18.05;100.00;100931.41;6007187;23;20035;-71
2022/09/07 01:22:46;;;;;;;5.60;5.28;;;;;;;17.94;100.00;100903.91;6064119;23;20394;-71
2022/09/07 01:25:34;;;;;;;5.97;5.57;;;;;;;17.64;100.00;100855.88;6039976;23;20108;-71
2022/09/07 01:28:19;;;;;;;6.95;6.35;;;;;;;18.01;100.00;100919.34;6038712;23;20471;-73
2022/09/07 01:31:00;;;;;;;7.18;6.68;;;;;;;17.97;100.00;100920.56;6003576;23;20021;-71
2022/09/07 01:33:50;;;;;;;7.00;6.60;;;;;;;16.46;100.00;100686.50;6031146;23;20396;-72
2022/09/07 01:36:32;;;;;;;6.43;5.90;;;;;;;16.52;100.00;100723.09;6030692;23;20030;-72
2022/09/07 01:39:02;;;;;;;6.93;6.53;;;;;;;17.74;100.00;100921.41;6034800;23;20019;-72
2022/09/07 01:41:46;;;;;;;7.28;6.80;;;;;;;17.69;100.00;100907.63;5999933;23;20027;-75
2022/09/07 01:44:16;;;;;;;6.90;6.30;;;;;;;17.36;100.00;100850.13;6028502;23;20105;-73
2022/09/07 01:46:56;;;;;;;6.97;6.47;;;;;;;17.73;100.00;100908.25;6028844;23;20509;-71
2022/09/07 01:49:29;;;;;;;6.68;6.18;;;;;;;17.67;100.00;100906.91;5975168;23;20035;-73
2022/09/07 01:52:04;;;;;;;6.32;5.93;;;;;;;17.82;100.00;100907.53;6019575;23;20022;-71
2022/09/07 01:54:37;;;;;;;7.43;7.03;;;;;;;17.54;100.00;100866.41;6003175;23;20088;-72
2022/09/07 01:57:12;;;;;;;6.15;5.75;;;;;;;17.24;100.00;100801.53;5999153;23;20706;-71
2022/09/07 01:59:46;;;;;;;7.70;7.25;;;;;;;17.79;100.00;100894.47;5995393;23;20019;-73
2022/09/07 02:02:19;;;;;;;5.93;5.63;;;;;;;17.80;100.00;100892.66;6023137;23;20089;-72
2022/09/07 02:04:53;;;;;;;6.10;5.70;;;;;;;17.78;100.00;100891.94;6016772;23;20027;-72
2022/09/07 02:07:35;;;;;;;5.95;5.55;;;;;;;17.78;100.00;100890.16;5995382;23;20034;-70
2022/09/07 02:10:27;;;;;;;6.17;5.77;;;;;;;17.79;100.00;100877.72;6015445;23;20015;-71
2022/09/07 02:13:11;;;;;;;6.00;5.70;;;;;;;17.82;100.00;100874.78;5991983;23;20011;-71
2022/09/07 02:15:41;;;;;;;7.97;7.30;;;;;;;17.83;100.00;100872.06;5994398;23;20081;-71
2022/09/07 02:18:10;;;;;;;6.13;5.72;;;;;;;17.85;100.00;100875.44;5992823;23;20537;-72
2022/09/07 02:20:39;;;;;;;8.75;8.15;;;;;;;17.70;100.00;100858.91;6015352;23;20569;-72
2022/09/07 02:23:17;;;;;;;5.75;5.45;;;;;;;17.74;100.00;100875.44;5974402;23;20019;-73
2022/09/07 02:25:51;;;;;;;8.05;7.38;;;;;;;17.51;100.00;100842.75;6018220;23;20097;-72
2022/09/07 02:28:24;;;;;;;6.65;6.15;;;;;;;17.64;100.00;100859.38;6033460;23;20041;-73
2022/09/07 02:30:51;;;;;;;6.80;6.32;;;;;;;17.66;100.00;100854.81;6019227;23;20011;-74
2022/09/07 02:33:18;;;;;;;6.25;5.85;;;;;;;17.69;100.00;100856.38;6031404;23;20086;-71
2022/09/07 02:35:45;;;;;;;6.82;6.38;;;;;;;17.71;100.00;100855.25;6014478;23;20049;-70
2022/09/07 02:38:11;;;;;;;6.75;6.28;;;;;;;17.04;100.00;100733.28;5992128;23;20086;-72
2022/09/07 02:40:39;;;;;;;7.50;6.95;;;;;;;17.65;100.00;100846.97;6022492;23;20031;-72
2022/09/07 02:43:08;;;;;;;6.50;6.00;;;;;;;17.67;100.00;100829.09;5994695;23;20038;-71
2022/09/07 02:45:57;;;;;;;7.90;7.32;;;;;;;17.53;100.00;100824.88;6020751;23;20027;-72
2022/09/07 02:48:32;;;;;;;6.70;6.28;;;;;;;17.53;100.00;100824.88;5998743;23;20019;-71
2022/09/07 02:51:05;;;;;;;6.32;5.90;;;;;;;17.50;100.00;100823.34;6036774;23;20026;-70
2022/09/07 02:53:43;;;;;;;;;;;;;;;17.46;100.00;100827.19;6028641;23;20015;-71
2022/09/07 02:56:34;;;;;;;8.15;7.50;;;;;;;15.95;100.00;100596.84;6031036;23;19910;-72
2022/09/07 02:59:04;;;;;;;6.38;5.97;;;;;;;17.34;100.00;100834.31;6029570;23;20658;-71
2022/09/07 03:01:35;;;;;;;7.30;6.60;;;;;;;17.28;100.00;100828.63;5994467;23;20022;-71
2022/09/07 03:04:28;;;;;;;7.32;6.72;;;;;;;17.23;100.00;100823.69;6023388;23;20257;-73
2022/09/07 03:07:01;;;;;;;6.72;6.22;;;;;;;17.18;100.00;100817.03;5988158;23;20551;-70
2022/09/07 03:09:35;;;;;;;7.60;7.13;;;;;;;15.31;100.00;100521.34;6019240;23;20043;-73
2022/09/07 03:12:04;;;;;;;8.15;6.78;;;;;;;17.14;100.00;100816.47;6005898;23;21501;-70
2022/09/07 03:14:32;;;;;;;8.02;7.45;;;;;;;17.11;100.00;100816.69;5997301;23;20086;-71
2022/09/07 03:16:59;;;;;;;7.10;6.20;;;;;;;17.05;100.00;100818.00;5994580;23;20026;-71
2022/09/07 03:19:26;;;;;;;6.65;6.25;;;;;;;16.48;100.00;100716.34;6013537;23;20038;-70
2022/09/07 03:21:52;;;;;;;6.68;6.22;;;;;;;16.84;100.00;100782.53;6028256;23;20029;-71
2022/09/07 03:24:19;;;;;;;6.93;6.40;;;;;;;16.98;100.00;100816.81;6021460;23;20022;-68
2022/09/07 03:26:47;;;;;;;7.60;6.90;;;;;;;16.98;100.00;100808.00;6022892;23;20019;-73
2022/09/07 03:29:14;;;;;;;7.20;6.70;;;;;;;15.16;100.00;100520.72;6069041;23;20079;-72
2022/09/07 03:31:40;;;;;;;8.20;7.57;;;;;;;16.78;100.00;100775.03;6048956;23;20026;-71
2022/09/07 03:34:07;;;;;;;6.00;5.60;;;;;;;16.77;100.00;100795.41;6051745;23;20026;-72
2022/09/07 03:36:34;;;;;;;7.20;6.70;;;;;;;16.61;100.00;100753.34;6049017;23;20010;-69
2022/09/07 03:39:01;;;;;;;8.45;6.35;;;;;;;16.79;100.00;100788.19;6063012;23;20014;-71
2022/09/07 03:41:27;;;;;;;8.02;7.35;;;;;;;15.49;100.00;100581.75;6055942;23;20021;-71
2022/09/07 03:43:54;;;;;;;7.57;6.88;;;;;;;15.26;100.00;100562.34;6050009;23;20030;-70
2022/09/07 03:46:21;;;;;;;7.18;6.65;;;;;;;15.46;100.00;100604.00;6055884;23;20084;-72
2022/09/07 03:48:49;;;;;;;7.18;6.68;;;;;;;16.71;100.00;100803.81;6050180;23;20037;-70
2022/09/07 03:51:18;;;;;;;6.68;6.20;;;;;;;16.48;100.00;100760.56;6072132;23;20087;-73
2022/09/07 03:53:46;;;;;;;7.70;7.10;;;;;;;16.63;100.00;100796.44;6040301;23;20014;-72
2022/09/07 03:56:16;;;;;;;6.38;5.97;;;;;;;16.41;100.00;100770.75;6056361;23;20022;-70
2022/09/07 03:58:45;;;;;;;7.88;7.20;;;;;;;16.56;100.00;100797.91;6006247;23;20403;-71
2022/09/07 04:01:15;;;;;;;6.47;6.07;;;;;;;16.34;100.00;100765.06;6059853;23;20012;-70
2022/09/07 04:03:43;;;;;;;7.40;6.80;;;;;;;15.56;100.00;100636.75;6054749;23;20518;-69
2022/09/07 04:06:10;;;;;;;7.38;6.78;;;;;;;16.50;100.00;100787.78;6035471;23;20026;-71
2022/09/07 04:08:38;;;;;;;8.80;8.10;;;;;;;16.49;100.00;100789.56;6028052;23;20022;-70
2022/09/07 04:11:07;;;;;;;10.48;7.30;;;;;;;16.51;100.00;100792.09;6048142;23;20031;-68
2022/09/07 04:13:34;;;;;;;9.23;8.43;;;;;;;15.24;100.00;100588.88;6047265;23;20034;-71
2022/09/07 04:16:13;;;;;;;8.45;7.60;;;;;;;16.46;100.00;100784.50;6057744;23;20601;-72
2022/09/07 04:18:40;;;;;;;8.68;8.05;;;;;;;16.45;100.00;100790.75;6032036;23;20031;-70
2022/09/07 04:21:07;;;;;;;7.18;6.47;;;;;;;16.42;100.00;100774.25;6058239;23;20057;-71
2022/09/07 04:23:37;;;;;;;8.73;7.90;;;;;;;16.42;100.00;100771.63;6042376;23;20461;-69
2022/09/07 04:26:03;;;;;;;7.70;6.93;;;;;;;16.39;100.00;100774.47;6055572;23;20585;-72
2022/09/07 04:28:30;;;;;;;8.57;7.78;;;;;;;15.48;100.00;100640.94;6062206;23;20026;-69
2022/09/07 04:31:01;;;;;;;6.78;6.22;;;;;;;16.37;100.00;100769.28;6036416;23;20074;-72
2022/09/07 04:33:31;;;;;;;8.20;7.53;;;;;;;16.38;100.00;100763.06;6063625;23;20088;-69
2022/09/07 04:35:59;;;;;;;7.40;6.80;;;;;;;16.38;100.00;100770.13;6054913;23;20265;-69
2022/09/07 04:38:27;;;;;;;8.05;7.25;;;;;;;16.35;100.00;100776.50;6043171;23;20586;-71
2022/09/07 04:41:01;;;;;;;7.13;6.60;;;;;;;16.27;100.00;100760.34;6059256;23;20026;-71
2022/09/07 04:43:31;;;;;;;8.40;7.63;;;;;;;16.30;100.00;100792.75;6049278;23;20089;-71
2022/09/07 04:46:07;;;;;;;8.60;7.25;;;;;;;16.27;100.00;100747.94;6025751;23;20029;-70
2022/09/07 04:48:34;;;;;;;9.93;8.95;;;;;;;15.83;100.00;100669.22;6054447;23;20041;-70
2022/09/07 04:51:08;;;;;;;7.65;6.93;;;;;;;16.29;100.00;100747.84;6055086;23;20040;-73
2022/09/07 04:53:36;;;;;;;9.73;8.75;;;;;;;15.12;100.00;100603.00;6065063;23;21353;-72
2022/09/07 04:56:03;;;;;;;12.70;7.53;;;;;;;15.69;100.00;100665.75;6052882;23;20023;-72
2022/09/07 04:58:30;;;;;;;14.77;9.02;;;;;;;16.22;100.00;100754.56;6052464;23;20642;-68
2022/09/07 05:01:02;;;;;;;9.50;8.43;;;;;;;16.24;100.00;100750.00;6046273;23;20744;-72
2022/09/07 05:03:30;;;;;;;10.18;9.30;;;;;;;16.08;100.00;100727.31;6045031;23;20030;-71
2022/09/07 05:06:00;;;;;;;10.32;8.20;;;;;;;15.21;100.00;100581.16;6051043;23;20074;-71
2022/09/07 05:08:27;;;;;;;7.40;6.80;;;;;;;16.25;100.00;100754.31;6051472;23;20027;-72
2022/09/07 05:10:56;;;;;;;7.40;6.82;;;;;;;16.23;100.00;100754.44;6060284;23;20024;-70
2022/09/07 05:13:22;;;;;;;9.40;8.05;;;;;;;16.16;100.00;100753.22;6056544;23;20076;-70
2022/09/07 05:15:49;;;;;;;7.72;7.03;;;;;;;15.10;100.00;100571.38;6053469;23;20435;-69
2022/09/07 05:18:16;;;;;;;7.22;6.53;;;;;;;16.12;100.00;100727.94;6061670;23;20018;-69
2022/09/07 05:20:42;;;;;;;8.38;7.57;;;;;;;16.25;100.00;100741.09;6045653;23;20168;-71
2022/09/07 05:23:09;;;;;;;7.70;6.82;;;;;;;16.26;100.00;100748.94;6071363;23;20022;-72
2022/09/07 05:25:42;;;;;;;9.68;8.88;;;;;;;16.29;100.00;100735.44;6046239;23;20049;-72
2022/09/07 05:28:08;;;;;;;8.55;7.80;;;;;;;16.29;100.00;100737.25;6072378;23;20018;-72
2022/09/07 05:30:35;;;;;;;10.15;9.10;;;;;;;16.26;100.00;100743.63;6003885;23;20026;-70
2022/09/07 05:33:24;;;;;;;8.80;8.00;;;;;;;16.28;100.00;100733.75;6059470;23;20019;-71
2022/09/07 05:36:10;;;;;;;9.20;7.72;;;;;;;16.30;100.00;100742.44;6063679;23;20026;-73
2022/09/07 05:38:37;;;;;;;9.25;8.30;;;;;;;16.28;100.00;100735.56;6053442;23;20606;-72
2022/09/07 05:41:16;;;;;;;6.88;6.32;;;;;;;16.42;100.00;100748.63;6062037;23;20327;-69
2022/09/07 05:43:42;;;;;;;8.75;8.02;;;;;;;16.52;100.00;100738.16;6037420;23;20639;-69
2022/09/07 05:46:29;;;;;;;9.80;7.22;;;;;;;16.56;100.00;100736.97;6057107;23;20021;-71
2022/09/07 05:48:56;;;;;;;8.45;7.65;;;;;;;16.61;100.00;100739.25;6053037;23;20631;-68
2022/09/07 05:51:23;;;;;;;6.93;6.30;;;;;;;16.54;100.00;100693.84;6063060;23;20026;-69
2022/09/07 05:53:49;;;;;;;9.13;8.20;;;;;;;16.75;100.00;100699.28;6053560;23;20101;-71
2022/09/07 05:56:16;;;;;;;7.32;6.70;;;;;;;17.17;100.00;100746.41;6056000;23;20463;-72
2022/09/07 05:58:47;;;;;;;8.43;7.72;;;;;;;17.37;100.00;100736.88;6050453;23;20021;-71
2022/09/07 06:01:14;;;;;;;9.15;6.90;;;;;;;17.28;100.00;100706.59;6051089;23;20017;-71
2022/09/07 06:03:41;;;;;;;8.90;8.25;;;;;;;17.49;100.00;100739.38;6040928;23;20086;-71
2022/09/07 06:06:10;;;;;;;7.53;6.53;;;;;;;17.68;100.00;100746.72;6035695;23;20077;-72
2022/09/07 06:08:38;;;;;;;8.05;7.45;;;;;;;17.66;100.00;100731.84;6031984;23;20028;-72
2022/09/07 06:11:06;;;;;;;7.32;6.82;;;;;;;16.61;100.00;100572.31;6059127;23;20034;-69
2022/09/07 06:13:33;;;;;;;8.23;7.53;;;;;;;16.09;100.00;100474.00;6044120;23;20023;-73
2022/09/07 06:16:05;;;;;;;7.13;6.60;;;;;;;17.73;100.00;100743.66;6050111;23;20025;-71
2022/09/07 06:18:35;;;;;;;8.80;8.00;;;;;;;17.70;100.00;100752.72;6045252;23;20022;-70
2022/09/07 06:21:09;;;;;;;7.40;6.68;;;;;;;17.89;100.00;100757.41;6056136;23;20014;-73
2022/09/07 06:23:38;;;;;;;9.75;9.07;;;;;;;18.13;100.00;100757.19;6040003;23;20022;-71
2022/09/07 06:26:05;;;;;;;8.63;7.82;;;;;;;18.42;100.00;100759.22;6053814;23;20464;-70
2022/09/07 06:28:40;;;;;;;9.85;7.35;;;;;;;18.36;100.00;100740.28;6001909;23;20027;-71
2022/09/07 06:31:12;;;;;;;7.95;7.35;;;;;;;18.44;100.00;100757.28;6035184;23;20022;-73
2022/09/07 06:33:40;;;;;;;9.35;8.55;;;;;;;18.21;100.00;100761.03;6026401;23;20059;-70
2022/09/07 06:36:26;;;;;;;7.43;6.72;;;;;;;17.03;100.00;100591.09;6017095;23;20094;-70
2022/09/07 06:38:54;;;;;;;7.10;6.47;;;;;;;17.68;100.00;100674.19;6002709;23;20033;-71
2022/09/07 06:41:22;;;;;;;6.85;6.35;;;;;;;18.35;100.00;100768.69;6012948;23;20100;-71
2022/09/07 06:44:11;;;;;;;8.15;7.38;;;;;;;18.43;100.00;100762.72;6045530;23;20041;-73
2022/09/07 06:46:37;;;;;;;8.38;7.78;;;;;;;18.58;100.00;100774.69;5999851;23;20354;-71
2022/09/07 06:49:25;;;;;;;7.93;7.25;;;;;;;18.66;100.00;100777.56;6030758;23;20094;-70
2022/09/07 06:51:51;;;;;;;14.73;7.90;;;;;;;18.66;100.00;100785.53;5995345;23;20078;-70
2022/09/07 06:54:18;;;;;;;7.93;7.10;;;;;;;17.55;100.00;100597.41;6032100;23;20031;-70
2022/09/07 06:57:07;;;;;;;7.55;6.95;;;;;;;18.90;100.00;100771.13;5999743;23;20375;-73
2022/09/07 06:59:35;;;;;;;9.88;8.48;;;;;;;19.17;100.00;100791.03;6021894;23;20592;-71
2022/09/07 07:02:02;;;;;;;7.88;7.28;;;;;;;19.27;100.00;100758.13;5979304;23;20838;-72
2022/09/07 07:04:29;;;;;;;8.85;8.25;;;;;;;19.32;100.00;100777.22;6024753;23;20022;-70
2022/09/07 07:06:56;;;;;;;10.23;7.78;;;;;;;19.59;100.00;100773.06;5987206;23;20039;-71
2022/09/07 07:09:22;;;;;;;9.43;8.30;;;;;;;19.66;100.00;100778.69;6023235;23;20089;-71
2022/09/07 07:11:49;;;;;;;7.80;7.15;;;;;;;19.61;100.00;100780.94;6022222;23;20025;-70
2022/09/07 07:14:16;;;;;;;8.45;7.75;;;;;;;18.60;100.00;100641.66;6000097;23;20027;-70
2022/09/07 07:16:44;;;;;;;9.13;8.27;;;;;;;18.80;100.00;100602.75;6021098;23;20025;-70
2022/09/07 07:19:10;;;;;;;7.72;7.13;;;;;;;19.05;100.00;100631.50;5999578;23;20019;-70
2022/09/07 07:21:37;;;;;;;9.38;8.57;;;;;;;20.03;100.00;100770.94;6027010;23;20346;-72
2022/09/07 07:24:23;;;;;;;7.20;6.78;;;;;;;20.47;100.00;100789.16;6014626;23;20035;-70
2022/09/07 07:26:50;;;;;;;7.85;7.13;;;;;;;20.57;100.00;100768.66;6003706;23;20018;-72
2022/09/07 07:29:17;;;;;;;7.70;7.05;;;;;;;19.61;100.00;100638.00;6031577;23;20066;-73
2022/09/07 07:31:45;;;;;;;8.02;7.13;;;;;;;20.72;100.00;100772.56;6044933;23;20279;-73
2022/09/07 07:34:12;;;;;;;6.35;5.95;;;;;;;21.27;100.00;100792.34;6051348;23;20014;-70
2022/09/07 07:36:39;;;;;;;8.20;7.57;;;;;;;21.26;100.00;100801.31;6052256;23;20022;-70
2022/09/07 07:39:05;;;;;;;5.90;5.55;;;;;;;21.69;100.00;100807.88;6042476;23;20034;-70
2022/09/07 07:41:32;;;;;;;8.95;8.25;;;;;;;21.88;100.00;100791.72;6035747;23;20161;-71
2022/09/07 07:44:19;;;;;;;8.50;7.85;;;;;;;21.05;100.00;100738.34;6039233;23;20018;-71
2022/09/07 07:46:49;;;;;;;6.63;6.22;;;;;;;21.10;100.00;100802.78;6039916;23;20439;-71
2022/09/07 07:49:16;;;;;;;6.18;5.88;;;;;;;20.00;100.00;100627.34;6053431;23;20105;-73
2022/09/07 07:51:43;;;;;;;6.53;6.07;;;;;;;20.89;100.00;100764.81;6043974;23;20713;-72
2022/09/07 07:54:32;;;;;;;7.97;7.47;;;;;;;20.76;100.00;100753.59;6054778;23;20022;-71
2022/09/07 07:56:59;;;;;;;5.70;5.40;;;;;;;21.00;100.00;100793.97;6049926;23;20062;-68
2022/09/07 07:59:25;;;;;;;6.55;6.20;;;;;;;20.96;100.00;100763.22;6041890;23;20022;-72
2022/09/07 08:01:52;;;;;;;5.80;5.50;;;;;;;21.24;100.00;100788.09;6061881;23;20025;-72
2022/09/07 08:04:18;;;;;;;6.38;5.80;;;;;;;20.26;100.00;100618.72;6044574;23;20049;-73
2022/09/07 08:06:45;;;;;;;6.35;5.90;;;;;;;20.47;100.00;100584.72;6043919;23;20076;-73
2022/09/07 08:09:11;;;;;;;5.45;5.15;;;;;;;21.11;100.00;100635.50;6046508;23;20033;-73
2022/09/07 08:11:39;;;;;;;7.55;7.15;;;;;;;21.60;100.00;100637.84;6051902;23;20014;-72
2022/09/07 08:14:07;;;;;;;5.88;5.57;;;;;;;22.50;100.00;100789.13;6051374;23;20034;-70
2022/09/07 08:16:34;;;;;;;6.95;6.65;;;;;;;22.64;100.00;100793.06;6040648;23;20578;-70
2022/09/07 08:19:01;;;;;;;5.68;5.38;;;;;;;20.99;99.74;100500.63;6044623;23;20017;-75
2022/09/07 08:21:28;;;;;;;7.05;6.45;;;;;;;22.33;100.00;100773.97;6046805;23;20098;-72
2022/09/07 08:23:55;;;;;;;5.65;5.35;;;;;;;22.46;100.00;100821.69;6049485;23;20030;-73
2022/09/07 08:26:21;;;;;;;5.80;5.50;;;;;;;22.38;99.80;100797.56;6023959;23;20015;-72
2022/09/07 08:28:48;;;;;;;5.85;5.55;;;;;;;22.33;99.39;100803.38;6049367;23;20476;-70
2022/09/07 08:31:16;;;;;;;5.72;5.32;;;;;;;22.22;100.00;100780.34;6067527;23;20046;-71
2022/09/07 08:33:43;;;;;;;6.60;6.30;;;;;;;22.28;98.63;100802.97;6040569;23;20049;-70
2022/09/07 08:36:18;;;;;;;10.02;5.60;;;;;;;22.49;100.00;100811.53;6057229;23;20084;-73
2022/09/07 08:38:45;;;;;;;6.25;5.85;;;;;;;22.65;100.00;100810.81;6049552;23;20097;-72
2022/09/07 08:41:41;;;;;;;5.40;5.20;;;;;;;22.71;98.43;100814.66;6069520;23;20010;-69
2022/09/07 08:44:20;;;;;;;5.63;5.32;;;;;;;22.81;98.18;100812.75;6051470;23;20022;-70
2022/09/07 08:46:55;;;;;;;6.00;5.70;;;;;;;23.24;96.09;100820.91;6073319;23;20037;-73
2022/09/07 08:49:50;;;;;;;5.63;5.32;;;;;;;22.66;93.81;100783.03;6058600;23;20121;-72
2022/09/07 08:52:24;;;;;;;5.63;5.30;;;;;;;22.57;96.86;100796.50;6070184;23;20042;-72
2022/09/07 08:55:26;;;;;;;5.45;5.25;;;;;;;22.70;97.16;100802.31;6026179;23;20361;-71
2022/09/07 08:58:08;;;;;;;5.95;5.65;;;;;;;20.97;95.84;100513.25;6068517;23;20022;-72
2022/09/07 09:00:52;;;;;;;5.53;5.30;;;;;;;22.58;96.68;100808.91;6031015;23;20093;-71
2022/09/07 09:03:40;;;;;;;7.15;6.75;;;;;;;21.11;97.85;100612.31;6022293;23;20053;-72
2022/09/07 09:06:48;;;;;;;6.30;5.90;;;;;;;22.41;98.72;100832.00;6056135;23;20089;-71
2022/09/07 09:09:34;;;;;;;5.50;5.20;;;;;;;22.82;97.02;100816.28;6055056;23;20055;-71
2022/09/07 09:12:18;;;;;;;5.50;5.20;;;;;;;23.27;93.00;100809.84;6036223;23;20011;-71
2022/09/07 09:15:10;;;;;;;5.75;5.45;;;;;;;23.46;91.09;100814.97;6054535;23;20024;-73
2022/09/07 09:17:42;;;;;;;7.20;6.80;;;;;;;23.12;91.30;100833.72;6047916;23;20046;-71
2022/09/07 09:20:40;;;;;;;5.75;5.32;;;;;;;23.30;91.60;100814.91;6072654;23;20026;-72
2022/09/07 09:23:12;;;;;;;5.72;5.43;;;;;;;23.13;93.00;100789.03;6059219;23;20076;-72
2022/09/07 09:25:51;;;;;;;;;;;;;;;23.38;92.53;100817.59;6053141;23;20032;-70
2022/09/07 09:28:18;;;;;;;5.53;5.28;;;;;;;23.38;91.92;100808.75;6045592;23;19950;-70
2022/09/07 09:30:46;;;;;;;5.85;5.45;;;;;;;23.71;91.48;100823.06;6054248;23;20030;-72
2022/09/07 09:33:17;;;;;;;5.70;5.40;;;;;;;23.80;89.50;100810.59;6047045;23;20057;-72
2022/09/07 09:35:48;;;;;;;6.15;5.85;;;;;;;24.07;89.25;100828.22;6027767;23;20096;-74
2022/09/07 09:38:32;;;;;;;6.07;5.55;;;;;;;24.09;88.82;100827.06;6057310;23;20159;-72
2022/09/07 09:41:11;;;;;;;5.57;5.30;;;;;;;24.27;87.45;100815.34;6046661;23;20025;-71
2022/09/07 09:43:44;;;;;;;7.15;6.75;;;;;;;24.01;85.51;100823.53;6050841;23;20412;-68
2022/09/07 09:46:22;;;;;;;5.60;5.32;;;;;;;24.20;87.71;100819.72;6059732;23;20534;-72
2022/09/07 09:48:53;;;;;;;5.80;5.50;;;;;;;24.16;84.64;100816.50;6013771;23;20550;-72
2022/09/07 09:51:21;;;;;;;5.30;5.10;;;;;;;24.18;84.86;100768.91;6051742;23;20022;-71
2022/09/07 09:54:32;;;;;;;5.75;5.45;;;;;;;24.61;85.11;100814.38;6037646;23;20526;-72
2022/09/07 09:56:59;;;;;;;6.00;5.60;;;;;;;23.93;84.69;100651.94;6049246;23;20094;-72
2022/09/07 09:59:28;;;;;;;6.30;6.00;;;;;;;25.11;84.27;100825.84;6037031;23;20032;-71
2022/09/07 10:02:32;;;;;;;5.63;5.32;;;;;;;24.86;80.92;100797.22;6051454;23;20026;-69
2022/09/07 10:05:25;;;;;;;5.80;5.50;;;;;;;24.51;83.59;100811.84;6044842;23;20056;-72
2022/09/07 10:07:52;;;;;;;5.80;5.50;;;;;;;24.81;82.00;100830.94;6041184;23;20022;-72
2022/09/07 10:10:19;;;;;;;5.90;5.60;;;;;;;25.09;82.30;100831.38;6058598;23;20079;-72
2022/09/07 10:12:45;;;;;;;5.97;5.68;;;;;;;25.24;80.73;100832.41;6047638;23;20534;-73
2022/09/07 10:15:35;;;;;;;5.72;5.50;;;;;;;25.27;78.01;100837.41;6047809;23;20609;-71
2022/09/07 10:18:15;;;;;;;5.90;5.60;;;;;;;25.04;80.99;100836.47;6041810;23;20018;-73
2022/09/07 10:20:41;;;;;;;6.80;6.40;;;;;;;25.12;80.73;100838.25;6050726;23;20027;-71
2022/09/07 10:23:20;;;;;;;6.00;5.70;;;;;;;25.14;80.09;100804.00;6035215;23;20789;-71
2022/09/07 10:25:46;;;;;;;5.72;5.45;;;;;;;24.27;79.65;100663.28;6050261;23;20591;-73
2022/09/07 10:28:22;;;;;;;5.70;5.40;;;;;;;25.05;80.01;100817.47;6036944;23;20026;-73
2022/09/07 10:31:11;;;;;;;6.00;5.70;;;;;;;24.35;78.41;100634.78;6018408;23;20561;-71
2022/09/07 10:34:17;;;;;;;7.13;6.72;;;;;;;25.22;79.63;100817.47;6036010;23;20225;-72
2022/09/07 10:36:51;;;;;;;7.35;6.95;;;;;;;24.86;82.19;100828.59;6049930;23;20022;-70
2022/09/07 10:39:25;;;;;;;5.80;5.50;;;;;;;24.96;83.21;100823.88;6045325;23;20026;-69
2022/09/07 10:42:00;;;;;;;5.85;5.55;;;;;;;24.96;84.39;100821.19;6019542;23;20026;-71
2022/09/07 10:44:29;;;;;;;5.97;5.68;;;;;;;25.12;83.75;100823.00;6013663;23;20038;-71
2022/09/07 10:47:07;;;;;;;6.13;5.72;;;;;;;24.96;83.37;100796.19;6047780;23;20040;-72
2022/09/07 10:49:53;;;;;;;7.50;6.78;;;;;;;25.30;82.75;100805.84;6041952;23;20015;-73
2022/09/07 10:53:07;;;;;;;7.45;7.05;;;;;;;25.74;79.76;100794.53;6030288;23;20026;-71
2022/09/07 10:56:12;;;;;;;5.90;5.60;;;;;;;26.46;77.98;100811.22;6051226;23;20011;-71
2022/09/07 10:58:58;;;;;;;6.00;5.70;;;;;;;25.96;76.87;100785.72;6021797;23;20031;-74
2022/09/07 11:01:59;;;;;;;6.70;6.30;;;;;;;26.50;76.64;100806.31;6048869;23;20036;-72
2022/09/07 11:04:56;;;;;;;7.32;6.93;;;;;;;25.71;75.55;100805.66;6047019;23;20085;-70
2022/09/07 11:08:07;;;;;;;6.18;5.68;;;;;;;25.34;78.20;100812.53;6056914;23;20031;-72
2022/09/07 11:10:44;;;;;;;7.55;6.80;;;;;;;25.48;79.76;100809.97;6041575;23;20476;-72
2022/09/07 11:13:16;;;;;;;6.07;5.78;;;;;;;25.82;78.83;100813.31;6047641;23;20495;-73
2022/09/07 11:15:53;;;;;;;6.00;5.70;;;;;;;25.42;78.65;100654.84;6031933;23;20025;-72
2022/09/07 11:18:26;;;;;;;6.20;5.80;;;;;;;26.79;76.45;100796.63;6043960;23;20374;-70
2022/09/07 11:20:57;;;;;;;6.57;5.93;;;;;;;26.58;73.95;100779.34;6029327;23;20974;-72
2022/09/07 11:23:30;;;;;;;6.45;6.03;;;;;;;26.45;74.42;100779.91;6045234;23;20037;-71
2022/09/07 11:25:56;;;;;;;;;;;;;;;26.60;73.42;100793.44;6054549;23;20032;-73
2022/09/07 11:28:27;;;;;;;6.15;5.85;;;;;;;26.30;73.67;100792.50;6056096;23;19906;-73
2022/09/07 11:30:58;;;;;;;6.50;6.10;;;;;;;26.12;73.97;100776.69;6029467;23;20089;-69
2022/09/07 11:33:34;;;;;;;6.73;6.37;;;;;;;24.86;74.71;100561.00;6002377;23;20073;-70
2022/09/07 11:36:07;;;;;;;6.40;6.00;;;;;;;26.42;73.76;100780.28;6045392;23;20382;-70
2022/09/07 11:38:47;;;;;;;8.32;7.82;;;;;;;26.32;72.89;100787.78;6037537;23;20030;-71
2022/09/07 11:41:13;;;;;;;6.50;6.10;;;;;;;26.38;72.75;100787.06;6057907;23;20037;-73
2022/09/07 11:44:12;;;;;;;6.68;6.00;;;;;;;26.72;71.30;100777.69;6047008;23;20038;-73
2022/09/07 11:46:58;;;;;;;7.47;7.07;;;;;;;26.13;69.67;100782.88;6054776;23;20671;-74
2022/09/07 11:49:25;;;;;;;6.28;5.95;;;;;;;25.32;70.19;100721.38;6064810;23;20087;-72